sensor_id;sensor_type;location;lat;lon;timestamp;pressure;altitude;pressure_sealevel;temperature;humidity
67109;BME280;54027;50.786;7.058;2023-05-19T00:01:06;101999.56;;;9.82;79.49
67109;BME280;54027;50.786;7.058;2023-05-19T00:03:32;101996.03;;;9.77;79.36
67109;BME280;54027;50.786;7.058;2023-05-19T00:06:00;101995.97;;;9.73;79.74
67109;BME280;54027;50.786;7.058;2023-05-19T00:08:29;101987.28;;;9.67;79.29
67109;BME280;54027;50.786;7.058;2023-05-19T00:10:56;101990.69;;;9.63;79.33
67109;BME280;54027;50.786;7.058;2023-05-19T00:13:22;101990.59;;;9.59;79.84
67109;BME280;54027;50.786;7.058;2023-05-19T00:15:48;101989.66;;;9.55;79.71
67109;BME280;54027;50.786;7.058;2023-05-19T00:18:13;101987.03;;;9.52;79.51
67109;BME280;54027;50.786;7.058;2023-05-19T00:20:41;101988.69;;;9.49;79.52
67109;BME280;54027;50.786;7.058;2023-05-19T00:23:07;101984.31;;;9.45;79.92
67109;BME280;54027;50.786;7.058;2023-05-19T00:25:32;101980.88;;;9.44;79.98
67109;BME280;54027;50.786;7.058;2023-05-19T00:27:58;101979.97;;;9.42;80.69
67109;BME280;54027;50.786;7.058;2023-05-19T00:30:23;101990.25;;;9.41;80.28
67109;BME280;54027;50.786;7.058;2023-05-19T00:32:49;101979.06;;;9.37;80.46
67109;BME280;54027;50.786;7.058;2023-05-19T00:35:15;101988.50;;;9.37;81.08
67109;BME280;54027;50.786;7.058;2023-05-19T00:37:41;101987.59;;;9.35;80.77
67109;BME280;54027;50.786;7.058;2023-05-19T00:40:07;101990.16;;;9.33;80.80
67109;BME280;54027;50.786;7.058;2023-05-19T00:42:32;101991.03;;;9.34;81.40
67109;BME280;54027;50.786;7.058;2023-05-19T00:44:58;101991.84;;;9.31;81.90
67109;BME280;54027;50.786;7.058;2023-05-19T00:47:24;101984.06;;;9.28;81.98
67109;BME280;54027;50.786;7.058;2023-05-19T00:49:49;101984.84;;;9.23;81.84
67109;BME280;54027;50.786;7.058;2023-05-19T00:52:15;101995.09;;;9.20;81.92
67109;BME280;54027;50.786;7.058;2023-05-19T00:54:41;101996.72;;;9.14;82.25
67109;BME280;54027;50.786;7.058;2023-05-19T00:57:07;102000.06;;;9.09;82.96
67109;BME280;54027;50.786;7.058;2023-05-19T00:59:33;101996.59;;;9.07;83.38
67109;BME280;54027;50.786;7.058;2023-05-19T01:01:58;101996.53;;;9.04;82.96
67109;BME280;54027;50.786;7.058;2023-05-19T01:04:24;101997.44;;;9.06;82.89
67109;BME280;54027;50.786;7.058;2023-05-19T01:06:50;101990.56;;;9.06;83.08
67109;BME280;54027;50.786;7.058;2023-05-19T01:09:23;101995.72;;;9.06;82.88
67109;BME280;54027;50.786;7.058;2023-05-19T01:11:51;101996.59;;;9.07;83.53
67109;BME280;54027;50.786;7.058;2023-05-19T01:14:17;101994.03;;;9.07;83.74
67109;BME280;54027;50.786;7.058;2023-05-19T01:16:57;101991.38;;;9.04;84.34
67109;BME280;54027;50.786;7.058;2023-05-19T01:32:37;101979.09;;;8.89;85.72
67109;BME280;54027;50.786;7.058;2023-05-19T01:35:06;101983.34;;;8.87;85.50
67109;BME280;54027;50.786;7.058;2023-05-19T01:37:33;101978.16;;;8.86;85.89
67109;BME280;54027;50.786;7.058;2023-05-19T01:40:00;101982.44;;;8.84;85.54
67109;BME280;54027;50.786;7.058;2023-05-19T01:42:26;101978.06;;;8.81;86.24
67109;BME280;54027;50.786;7.058;2023-05-19T01:44:52;101975.47;;;8.78;86.53
67109;BME280;54027;50.786;7.058;2023-05-19T01:47:18;101970.25;;;8.75;86.03
67109;BME280;54027;50.786;7.058;2023-05-19T01:49:44;101974.47;;;8.72;86.40
67109;BME280;54027;50.786;7.058;2023-05-19T01:52:09;101982.09;;;8.67;86.80
67109;BME280;54027;50.786;7.058;2023-05-19T01:54:35;101980.34;;;8.65;86.44
67109;BME280;54027;50.786;7.058;2023-05-19T01:59:56;101983.63;;;8.57;87.03
67109;BME280;54027;50.786;7.058;2023-05-19T02:02:52;101984.44;;;8.53;87.16
67109;BME280;54027;50.786;7.058;2023-05-19T02:05:37;101990.41;;;8.51;87.32
67109;BME280;54027;50.786;7.058;2023-05-19T02:08:15;101991.22;;;8.48;87.33
67109;BME280;54027;50.786;7.058;2023-05-19T02:10:50;101991.16;;;8.45;87.24
67109;BME280;54027;50.786;7.058;2023-05-19T02:13:22;101995.31;;;8.40;88.33
67109;BME280;54027;50.786;7.058;2023-05-19T02:15:49;101986.59;;;8.32;88.38
67109;BME280;54027;50.786;7.058;2023-05-19T02:18:16;101997.59;;;8.25;88.10
67109;BME280;54027;50.786;7.058;2023-05-19T02:20:43;101994.88;;;8.19;88.48
67109;BME280;54027;50.786;7.058;2023-05-19T02:23:08;101998.22;;;8.14;88.30
67109;BME280;54027;50.786;7.058;2023-05-19T02:25:34;101997.25;;;8.10;88.82
67109;BME280;54027;50.786;7.058;2023-05-19T02:27:59;101992.91;;;8.06;89.57
67109;BME280;54027;50.786;7.058;2023-05-19T02:30:24;102002.28;;;8.02;89.64
67109;BME280;54027;50.786;7.058;2023-05-19T02:32:50;102008.25;;;8.01;90.80
67109;BME280;54027;50.786;7.058;2023-05-19T02:35:18;102005.66;;;8.00;90.78
67109;BME280;54027;50.786;7.058;2023-05-19T02:37:43;102001.25;;;7.94;91.35
67109;BME280;54027;50.786;7.058;2023-05-19T02:40:09;102003.69;;;7.90;91.46
67109;BME280;54027;50.786;7.058;2023-05-19T02:42:35;101996.75;;;7.86;91.54
67109;BME280;54027;50.786;7.058;2023-05-19T02:45:00;101984.66;;;7.82;91.57
67109;BME280;54027;50.786;7.058;2023-05-19T02:47:25;101986.34;;;7.80;91.35
67109;BME280;54027;50.786;7.058;2023-05-19T02:49:51;101989.66;;;7.76;91.31
67109;BME280;54027;50.786;7.058;2023-05-19T02:52:16;101986.19;;;7.74;91.41
67109;BME280;54027;50.786;7.058;2023-05-19T02:54:41;101985.25;;;7.70;91.56
67109;BME280;54027;50.786;7.058;2023-05-19T02:57:07;101985.19;;;7.69;91.53
67109;BME280;54027;50.786;7.058;2023-05-19T02:59:32;101976.59;;;7.67;91.51
67109;BME280;54027;50.786;7.058;2023-05-19T03:01:59;101985.13;;;7.66;91.55
67109;BME280;54027;50.786;7.058;2023-05-19T03:04:25;101986.00;;;7.66;91.66
67109;BME280;54027;50.786;7.058;2023-05-19T03:06:50;101983.47;;;7.68;91.42
67109;BME280;54027;50.786;7.058;2023-05-19T03:09:16;101980.94;;;7.69;91.69
67109;BME280;54027;50.786;7.058;2023-05-19T03:11:41;101980.91;;;7.68;91.85
67109;BME280;54027;50.786;7.058;2023-05-19T03:14:07;101984.28;;;7.65;91.89
67109;BME280;54027;50.786;7.058;2023-05-19T03:16:36;101981.63;;;7.62;91.58
67109;BME280;54027;50.786;7.058;2023-05-19T03:19:01;101971.28;;;7.59;91.68
67109;BME280;54027;50.786;7.058;2023-05-19T03:21:27;101977.25;;;7.58;91.64
67109;BME280;54027;50.786;7.058;2023-05-19T03:23:52;101976.34;;;7.56;91.73
67109;BME280;54027;50.786;7.058;2023-05-19T03:26:19;101970.28;;;7.54;91.74
67109;BME280;54027;50.786;7.058;2023-05-19T03:28:44;101974.53;;;7.52;91.81
67109;BME280;54027;50.786;7.058;2023-05-19T03:31:09;101971.22;;;7.56;92.15
67109;BME280;54027;50.786;7.058;2023-05-19T03:33:35;101976.31;;;7.55;92.49
67109;BME280;54027;50.786;7.058;2023-05-19T03:36:00;101980.63;;;7.56;93.08
67109;BME280;54027;50.786;7.058;2023-05-19T03:38:26;101978.00;;;7.54;92.92
67109;BME280;54027;50.786;7.058;2023-05-19T03:40:51;101981.31;;;7.49;92.90
67109;BME280;54027;50.786;7.058;2023-05-19T03:43:17;101980.28;;;7.42;92.05
67109;BME280;54027;50.786;7.058;2023-05-19T03:45:43;101979.31;;;7.37;92.86
67109;BME280;54027;50.786;7.058;2023-05-19T03:48:08;101981.81;;;7.34;92.27
67109;BME280;54027;50.786;7.058;2023-05-19T03:50:34;101984.31;;;7.31;92.07
67109;BME280;54027;50.786;7.058;2023-05-19T03:52:59;101986.81;;;7.28;92.28
67109;BME280;54027;50.786;7.058;2023-05-19T03:55:25;101987.59;;;7.25;92.38
67109;BME280;54027;50.786;7.058;2023-05-19T03:57:54;101990.16;;;7.24;92.25
67109;BME280;54027;50.786;7.058;2023-05-19T04:00:20;101993.50;;;7.21;92.69
67109;BME280;54027;50.786;7.058;2023-05-19T04:02:45;101996.03;;;7.20;93.15
67109;BME280;54027;50.786;7.058;2023-05-19T04:05:10;101985.00;;;7.24;92.92
67109;BME280;54027;50.786;7.058;2023-05-19T04:07:36;101990.19;;;7.27;93.37
67109;BME280;54027;50.786;7.058;2023-05-19T04:10:05;101989.50;;;7.32;93.34
67109;BME280;54027;50.786;7.058;2023-05-19T04:12:30;101985.25;;;7.34;93.47
67109;BME280;54027;50.786;7.058;2023-05-19T04:14:56;101982.75;;;7.37;93.52
67109;BME280;54027;50.786;7.058;2023-05-19T04:17:21;101985.44;;;7.42;93.50
67109;BME280;54027;50.786;7.058;2023-05-19T04:19:50;101980.44;;;7.48;93.50
67109;BME280;54027;50.786;7.058;2023-05-19T04:22:16;101985.78;;;7.56;93.40
67109;BME280;54027;50.786;7.058;2023-05-19T04:24:41;101986.72;;;7.61;93.48
67109;BME280;54027;50.786;7.058;2023-05-19T04:27:06;101988.56;;;7.66;93.56
67109;BME280;54027;50.786;7.058;2023-05-19T04:29:36;101983.56;;;7.72;93.17
67109;BME280;54027;50.786;7.058;2023-05-19T04:32:03;101987.16;;;7.80;92.84
67109;BME280;54027;50.786;7.058;2023-05-19T04:34:35;101981.41;;;7.90;92.90
67109;BME280;54027;50.786;7.058;2023-05-19T04:37:01;101983.41;;;8.04;93.01
67109;BME280;54027;50.786;7.058;2023-05-19T04:39:26;101978.34;;;8.08;92.95
67109;BME280;54027;50.786;7.058;2023-05-19T04:41:52;101975.91;;;8.14;92.74
67109;BME280;54027;50.786;7.058;2023-05-19T04:44:20;101978.66;;;8.22;91.96
67109;BME280;54027;50.786;7.058;2023-05-19T04:46:46;101977.91;;;8.27;92.01
67109;BME280;54027;50.786;7.058;2023-05-19T04:49:11;101978.84;;;8.32;90.63
67109;BME280;54027;50.786;7.058;2023-05-19T04:51:37;101978.16;;;8.39;90.28
67109;BME280;54027;50.786;7.058;2023-05-19T04:54:08;101977.41;;;8.46;89.12
67109;BME280;54027;50.786;7.058;2023-05-19T04:56:34;101984.44;;;8.55;88.68
67109;BME280;54027;50.786;7.058;2023-05-19T04:59:00;101982.00;;;8.61;88.58
67109;BME280;54027;50.786;7.058;2023-05-19T05:01:25;101989.84;;;8.67;87.82
67109;BME280;54027;50.786;7.058;2023-05-19T05:03:51;101983.97;;;8.74;87.37
67109;BME280;54027;50.786;7.058;2023-05-19T05:06:22;101983.28;;;8.83;86.70
67109;BME280;54027;50.786;7.058;2023-05-19T05:08:48;101988.59;;;8.93;86.51
67109;BME280;54027;50.786;7.058;2023-05-19T05:11:13;101978.41;;;8.99;86.10
67109;BME280;54027;50.786;7.058;2023-05-19T05:13:39;101978.44;;;9.01;84.57
67109;BME280;54027;50.786;7.058;2023-05-19T05:16:05;101980.31;;;9.09;83.67
67109;BME280;54027;50.786;7.058;2023-05-19T05:18:33;101979.53;;;9.15;83.55
67109;BME280;54027;50.786;7.058;2023-05-19T05:20:58;101983.97;;;9.22;83.46
67109;BME280;54027;50.786;7.058;2023-05-19T05:23:24;101977.22;;;9.30;83.48
67109;BME280;54027;50.786;7.058;2023-05-19T05:25:50;101973.06;;;9.41;82.73
67109;BME280;54027;50.786;7.058;2023-05-19T05:28:15;101974.09;;;9.49;82.43
67109;BME280;54027;50.786;7.058;2023-05-19T05:30:41;101970.72;;;9.55;81.05
67109;BME280;54027;50.786;7.058;2023-05-19T05:33:07;101966.63;;;9.66;80.83
67109;BME280;54027;50.786;7.058;2023-05-19T05:35:33;101971.06;;;9.76;80.25
67109;BME280;54027;50.786;7.058;2023-05-19T05:37:58;101962.59;;;9.86;80.46
67109;BME280;54027;50.786;7.058;2023-05-19T05:40:24;101954.09;;;9.93;78.91
67109;BME280;54027;50.786;7.058;2023-05-19T05:42:49;101944.72;;;10.00;77.68
67109;BME280;54027;50.786;7.058;2023-05-19T05:45:14;101952.53;;;10.06;77.01
67109;BME280;54027;50.786;7.058;2023-05-19T05:47:40;101952.63;;;10.13;77.29
67109;BME280;54027;50.786;7.058;2023-05-19T05:50:07;101938.94;;;10.20;76.64
67109;BME280;54027;50.786;7.058;2023-05-19T05:52:35;101934.72;;;10.29;75.72
67109;BME280;54027;50.786;7.058;2023-05-19T05:55:02;101929.59;;;10.32;75.13
67109;BME280;54027;50.786;7.058;2023-05-19T05:57:27;101938.28;;;10.40;75.07
67109;BME280;54027;50.786;7.058;2023-05-19T05:59:55;101934.84;;;10.41;75.13
67109;BME280;54027;50.786;7.058;2023-05-19T06:02:20;101951.25;;;10.43;76.27
67109;BME280;54027;50.786;7.058;2023-05-19T06:04:46;101957.31;;;10.48;76.47
67109;BME280;54027;50.786;7.058;2023-05-19T06:07:11;101950.50;;;10.54;75.40
67109;BME280;54027;50.786;7.058;2023-05-19T06:09:37;101951.44;;;10.59;74.50
67109;BME280;54027;50.786;7.058;2023-05-19T06:12:02;101918.69;;;10.61;72.61
67109;BME280;54027;50.786;7.058;2023-05-19T06:14:28;101900.66;;;10.69;71.57
67109;BME280;54027;50.786;7.058;2023-05-19T06:16:53;101912.00;;;10.82;71.94
67109;BME280;54027;50.786;7.058;2023-05-19T06:19:20;101922.38;;;10.89;73.26
67109;BME280;54027;50.786;7.058;2023-05-19T06:21:45;101926.78;;;10.95;72.99
67109;BME280;54027;50.786;7.058;2023-05-19T06:24:11;101935.47;;;11.03;72.71
67109;BME280;54027;50.786;7.058;2023-05-19T06:26:36;101918.22;;;11.05;72.61
67109;BME280;54027;50.786;7.058;2023-05-19T06:29:02;101911.44;;;11.17;72.20
67109;BME280;54027;50.786;7.058;2023-05-19T06:31:28;101906.25;;;11.19;71.67
67109;BME280;54027;50.786;7.058;2023-05-19T06:33:53;101906.31;;;11.28;71.67
67109;BME280;54027;50.786;7.058;2023-05-19T06:36:19;101919.31;;;11.37;72.44
67109;BME280;54027;50.786;7.058;2023-05-19T06:38:44;101879.72;;;11.46;69.90
67109;BME280;54027;50.786;7.058;2023-05-19T06:41:09;101852.13;;;11.49;68.74
67109;BME280;54027;50.786;7.058;2023-05-19T06:43:35;101825.38;;;11.52;66.30
67109;BME280;54027;50.786;7.058;2023-05-19T06:46:00;101853.06;;;11.62;67.62
67109;BME280;54027;50.786;7.058;2023-05-19T06:48:26;101826.31;;;11.70;66.09
67109;BME280;54027;50.786;7.058;2023-05-19T06:50:51;101813.41;;;11.78;65.62
67109;BME280;54027;50.786;7.058;2023-05-19T06:53:18;101803.91;;;11.80;65.29
67109;BME280;54027;50.786;7.058;2023-05-19T06:55:43;101829.88;;;11.95;65.36
67109;BME280;54027;50.786;7.058;2023-05-19T06:58:09;101810.03;;;12.06;64.62
67109;BME280;54027;50.786;7.058;2023-05-19T07:00:34;101848.91;;;12.20;66.42
67109;BME280;54027;50.786;7.058;2023-05-19T07:03:00;101837.72;;;12.27;65.89
67109;BME280;54027;50.786;7.058;2023-05-19T07:05:26;101828.22;;;12.36;65.41
67109;BME280;54027;50.786;7.058;2023-05-19T07:07:51;101837.72;;;12.43;65.44
67109;BME280;54027;50.786;7.058;2023-05-19T07:10:17;101790.19;;;12.48;64.02
67109;BME280;54027;50.786;7.058;2023-05-19T07:12:42;101797.09;;;12.47;64.19
67109;BME280;54027;50.786;7.058;2023-05-19T07:15:08;101794.53;;;12.49;63.97
67109;BME280;54027;50.786;7.058;2023-05-19T07:17:33;101815.25;;;12.59;64.77
67109;BME280;54027;50.786;7.058;2023-05-19T07:19:59;101804.91;;;12.70;64.19
67109;BME280;54027;50.786;7.058;2023-05-19T07:22:25;101795.34;;;12.85;64.09
67109;BME280;54027;50.786;7.058;2023-05-19T07:24:51;101779.78;;;12.97;63.03
67109;BME280;54027;50.786;7.058;2023-05-19T07:27:16;101788.41;;;13.16;62.99
67109;BME280;54027;50.786;7.058;2023-05-19T07:29:42;101752.91;;;13.26;61.93
67109;BME280;54027;50.786;7.058;2023-05-19T07:32:07;101748.53;;;13.37;61.09
67109;BME280;54027;50.786;7.058;2023-05-19T07:34:33;101735.56;;;13.37;60.61
67109;BME280;54027;50.786;7.058;2023-05-19T07:36:58;101756.25;;;13.50;61.12
67109;BME280;54027;50.786;7.058;2023-05-19T07:39:23;101721.63;;;13.54;59.70
67109;BME280;54027;50.786;7.058;2023-05-19T07:41:51;101726.75;;;13.64;59.37
67109;BME280;54027;50.786;7.058;2023-05-19T07:44:19;101737.16;;;13.68;59.62
67109;BME280;54027;50.786;7.058;2023-05-19T07:46:45;101744.88;;;13.74;59.94
67109;BME280;54027;50.786;7.058;2023-05-19T07:49:10;101745.69;;;13.85;59.36
67109;BME280;54027;50.786;7.058;2023-05-19T07:51:36;101723.13;;;13.92;59.01
67109;BME280;54027;50.786;7.058;2023-05-19T07:54:01;101717.84;;;13.98;58.10
67109;BME280;54027;50.786;7.058;2023-05-19T07:56:26;101710.91;;;14.03;58.08
67109;BME280;54027;50.786;7.058;2023-05-19T07:58:52;101702.13;;;14.18;57.40
67109;BME280;54027;50.786;7.058;2023-05-19T08:01:17;101718.56;;;14.20;57.79
67109;BME280;54027;50.786;7.058;2023-05-19T08:03:42;101699.44;;;14.30;56.98
67109;BME280;54027;50.786;7.058;2023-05-19T08:06:08;101684.63;;;14.42;56.26
67109;BME280;54027;50.786;7.058;2023-05-19T08:08:33;101687.25;;;14.39;55.59
67109;BME280;54027;50.786;7.058;2023-05-19T08:11:03;101695.00;;;14.44;55.95
67109;BME280;54027;50.786;7.058;2023-05-19T08:13:29;101708.69;;;14.62;57.10
67109;BME280;54027;50.786;7.058;2023-05-19T08:15:55;101708.47;;;14.84;57.08
67109;BME280;54027;50.786;7.058;2023-05-19T08:18:24;101650.34;;;14.83;54.01
67109;BME280;54027;50.786;7.058;2023-05-19T08:20:49;101679.00;;;14.80;55.54
67109;BME280;54027;50.786;7.058;2023-05-19T08:23:15;101719.63;;;14.95;57.06
67109;BME280;54027;50.786;7.058;2023-05-19T08:25:42;101688.16;;;15.11;55.26
67109;BME280;54027;50.786;7.058;2023-05-19T08:28:07;101665.44;;;15.24;55.44
67109;BME280;54027;50.786;7.058;2023-05-19T08:30:33;101639.47;;;15.18;53.40
67109;BME280;54027;50.786;7.058;2023-05-19T08:32:58;101644.69;;;15.19;53.44
67109;BME280;54027;50.786;7.058;2023-05-19T08:35:24;101652.38;;;15.26;53.52
67109;BME280;54027;50.786;7.058;2023-05-19T08:37:50;101640.19;;;15.29;53.11
67109;BME280;54027;50.786;7.058;2023-05-19T08:40:16;101632.44;;;15.25;52.87
67109;BME280;54027;50.786;7.058;2023-05-19T08:42:43;101684.34;;;15.40;55.57
67109;BME280;54027;50.786;7.058;2023-05-19T08:45:09;101694.53;;;15.58;55.81
67109;BME280;54027;50.786;7.058;2023-05-19T08:47:35;101645.72;;;15.69;53.63
67109;BME280;54027;50.786;7.058;2023-05-19T08:50:05;101621.41;;;15.70;52.18
67109;BME280;54027;50.786;7.058;2023-05-19T08:55:32;101614.50;;;15.66;51.56
67109;BME280;54027;50.786;7.058;2023-05-19T08:58:02;101620.47;;;15.72;52.46
67109;BME280;54027;50.786;7.058;2023-05-19T09:00:28;101647.16;;;15.88;53.54
67109;BME280;54027;50.786;7.058;2023-05-19T09:02:55;101611.31;;;16.01;51.87
67109;BME280;54027;50.786;7.058;2023-05-19T09:05:21;101590.28;;;16.10;50.52
67109;BME280;54027;50.786;7.058;2023-05-19T09:07:47;101574.69;;;16.07;50.08
67109;BME280;54027;50.786;7.058;2023-05-19T09:10:13;101597.19;;;16.14;50.90
67109;BME280;54027;50.786;7.058;2023-05-19T09:12:44;101567.63;;;16.12;49.53
67109;BME280;54027;50.786;7.058;2023-05-19T09:15:11;101591.06;;;16.15;50.06
67109;BME280;54027;50.786;7.058;2023-05-19T09:17:40;101594.25;;;16.30;50.59
67109;BME280;54027;50.786;7.058;2023-05-19T09:20:05;101589.69;;;16.42;50.26
67109;BME280;54027;50.786;7.058;2023-05-19T09:22:43;101573.13;;;16.43;49.80
67109;BME280;54027;50.786;7.058;2023-05-19T09:25:21;101580.72;;;16.55;50.02
67109;BME280;54027;50.786;7.058;2023-05-19T09:27:47;101583.91;;;16.69;50.13
67109;BME280;54027;50.786;7.058;2023-05-19T09:30:15;101564.53;;;16.82;49.53
67109;BME280;54027;50.786;7.058;2023-05-19T09:32:40;101572.38;;;16.80;49.63
67109;BME280;54027;50.786;7.058;2023-05-19T09:35:06;101554.78;;;16.90;48.94
67109;BME280;54027;50.786;7.058;2023-05-19T09:37:32;101565.91;;;17.00;49.23
67109;BME280;54027;50.786;7.058;2023-05-19T09:39:58;101561.50;;;17.02;48.71
67109;BME280;54027;50.786;7.058;2023-05-19T09:42:24;101560.41;;;17.10;49.16
67109;BME280;54027;50.786;7.058;2023-05-19T09:45:01;101546.16;;;17.25;48.62
67109;BME280;54027;50.786;7.058;2023-05-19T09:47:34;101549.03;;;17.50;48.07
67109;BME280;54027;50.786;7.058;2023-05-19T09:50:03;101552.31;;;17.59;48.41
67109;BME280;54027;50.786;7.058;2023-05-19T09:52:28;101529.31;;;17.72;47.05
67109;BME280;54027;50.786;7.058;2023-05-19T09:54:55;101534.78;;;17.63;47.12
67109;BME280;54027;50.786;7.058;2023-05-19T09:57:26;101529.72;;;17.55;46.65
67109;BME280;54027;50.786;7.058;2023-05-19T09:59:54;101534.56;;;17.72;47.20
67109;BME280;54027;50.786;7.058;2023-05-19T10:02:21;101529.78;;;17.89;46.57
67109;BME280;54027;50.786;7.058;2023-05-19T10:04:51;101529.41;;;18.03;47.06
67109;BME280;54027;50.786;7.058;2023-05-19T10:07:18;101529.50;;;18.30;46.93
67109;BME280;54027;50.786;7.058;2023-05-19T10:09:44;101485.09;;;18.27;44.31
67109;BME280;54027;50.786;7.058;2023-05-19T10:12:11;101497.06;;;18.36;44.72
67109;BME280;54027;50.786;7.058;2023-05-19T10:14:37;101483.81;;;18.40;43.95
67109;BME280;54027;50.786;7.058;2023-05-19T10:17:04;101490.63;;;18.47;44.59
67109;BME280;54027;50.786;7.058;2023-05-19T10:19:31;101485.28;;;18.50;44.34
67109;BME280;54027;50.786;7.058;2023-05-19T10:21:57;101494.88;;;18.79;44.93
67109;BME280;54027;50.786;7.058;2023-05-19T10:24:22;101468.44;;;18.88;43.13
67109;BME280;54027;50.786;7.058;2023-05-19T10:26:50;101465.34;;;18.74;42.72
67109;BME280;54027;50.786;7.058;2023-05-19T10:29:22;101465.97;;;18.82;43.04
67109;BME280;54027;50.786;7.058;2023-05-19T10:31:50;101452.28;;;19.02;42.13
67109;BME280;54027;50.786;7.058;2023-05-19T10:37:33;101438.09;;;19.35;41.22
67109;BME280;54027;50.786;7.058;2023-05-19T10:40:11;101454.03;;;19.54;41.39
67109;BME280;54027;50.786;7.058;2023-05-19T10:45:27;101472.03;;;20.14;42.03
67109;BME280;54027;50.786;7.058;2023-05-19T10:47:55;101441.97;;;20.23;40.31
67109;BME280;54027;50.786;7.058;2023-05-19T10:50:20;101400.09;;;20.41;38.21
67109;BME280;54027;50.786;7.058;2023-05-19T10:52:52;101446.06;;;20.53;40.61
67109;BME280;54027;50.786;7.058;2023-05-19T10:58:13;101416.13;;;20.12;38.69
67109;BME280;54027;50.786;7.058;2023-05-19T11:00:39;101426.34;;;19.95;38.89
67109;BME280;54027;50.786;7.058;2023-05-19T11:03:16;101422.25;;;19.88;38.96
67109;BME280;54027;50.786;7.058;2023-05-19T11:05:47;101440.59;;;19.63;39.27
67109;BME280;54027;50.786;7.058;2023-05-19T11:08:15;101460.44;;;19.45;40.96
67109;BME280;54027;50.786;7.058;2023-05-19T11:10:45;101455.00;;;20.01;40.91
67109;BME280;54027;50.786;7.058;2023-05-19T11:13:18;101455.94;;;20.00;40.29
67109;BME280;54027;50.786;7.058;2023-05-19T11:15:44;101441.81;;;19.78;39.91
67109;BME280;54027;50.786;7.058;2023-05-19T11:18:12;101373.84;;;19.96;36.48
67109;BME280;54027;50.786;7.058;2023-05-19T11:20:40;101382.56;;;20.20;36.88
67109;BME280;54027;50.786;7.058;2023-05-19T11:23:09;101372.22;;;20.39;35.98
67109;BME280;54027;50.786;7.058;2023-05-19T11:25:45;101390.66;;;20.59;36.64
67109;BME280;54027;50.786;7.058;2023-05-19T11:28:14;101378.84;;;20.70;36.77
67109;BME280;54027;50.786;7.058;2023-05-19T11:30:45;101417.13;;;20.76;38.12
67109;BME280;54027;50.786;7.058;2023-05-19T11:33:14;101423.00;;;21.04;38.36
67109;BME280;54027;50.786;7.058;2023-05-19T11:35:45;101394.88;;;21.47;37.15
67109;BME280;54027;50.786;7.058;2023-05-19T11:38:12;101376.56;;;21.25;36.19
67109;BME280;54027;50.786;7.058;2023-05-19T11:40:38;101386.09;;;21.27;36.49
67109;BME280;54027;50.786;7.058;2023-05-19T11:43:04;101368.66;;;21.45;35.48
67109;BME280;54027;50.786;7.058;2023-05-19T11:45:30;101382.59;;;21.47;36.46
67109;BME280;54027;50.786;7.058;2023-05-19T11:47:57;101367.44;;;21.52;35.45
67109;BME280;54027;50.786;7.058;2023-05-19T11:50:24;101313.13;;;21.71;32.46
67109;BME280;54027;50.786;7.058;2023-05-19T11:52:51;101324.72;;;22.05;31.96
67109;BME280;54027;50.786;7.058;2023-05-19T11:55:20;101357.94;;;21.89;33.56
67109;BME280;54027;50.786;7.058;2023-05-19T12:00:24;101348.16;;;22.11;33.44
67109;BME280;54027;50.786;7.058;2023-05-19T12:02:50;101366.56;;;22.48;34.26
67109;BME280;54027;50.786;7.058;2023-05-19T12:05:23;101347.69;;;22.57;33.12
67109;BME280;54027;50.786;7.058;2023-05-19T12:07:49;101332.72;;;22.58;32.39
67109;BME280;54027;50.786;7.058;2023-05-19T12:10:29;101370.91;;;23.02;33.79
67109;BME280;54027;50.786;7.058;2023-05-19T12:12:56;101341.38;;;23.47;32.19
67109;BME280;54027;50.786;7.058;2023-05-19T12:15:25;101314.66;;;23.53;30.85
67109;BME280;54027;50.786;7.058;2023-05-19T12:17:59;101323.44;;;23.36;31.45
67109;BME280;54027;50.786;7.058;2023-05-19T12:20:25;101335.06;;;23.50;31.14
67109;BME280;54027;50.786;7.058;2023-05-19T12:22:52;101326.53;;;23.77;31.03
67109;BME280;54027;50.786;7.058;2023-05-19T12:25:18;101298.50;;;23.90;29.18
67109;BME280;54027;50.786;7.058;2023-05-19T12:27:44;101303.19;;;23.37;29.11
67109;BME280;54027;50.786;7.058;2023-05-19T12:30:10;101306.41;;;23.09;29.24
67109;BME280;54027;50.786;7.058;2023-05-19T12:32:37;101333.59;;;23.10;30.79
67109;BME280;54027;50.786;7.058;2023-05-19T12:35:04;101339.59;;;22.96;31.33
67109;BME280;54027;50.786;7.058;2023-05-19T12:37:30;101317.72;;;23.28;29.90
67109;BME280;54027;50.786;7.058;2023-05-19T12:39:58;101317.50;;;23.33;30.29
67109;BME280;54027;50.786;7.058;2023-05-19T12:42:27;101329.81;;;23.32;30.35
67109;BME280;54027;50.786;7.058;2023-05-19T12:44:57;101307.53;;;23.71;29.58
67109;BME280;54027;50.786;7.058;2023-05-19T12:47:29;101313.28;;;23.12;29.33
67109;BME280;54027;50.786;7.058;2023-05-19T12:52:25;101376.41;;;22.80;33.14
67109;BME280;54027;50.786;7.058;2023-05-19T12:55:07;101329.50;;;22.87;30.14
67109;BME280;54027;50.786;7.058;2023-05-19T12:57:34;101326.81;;;23.23;30.42
67109;BME280;54027;50.786;7.058;2023-05-19T13:00:01;101363.56;;;23.09;31.92
67109;BME280;54027;50.786;7.058;2023-05-19T13:02:26;101339.03;;;22.72;31.12
67109;BME280;54027;50.786;7.058;2023-05-19T13:04:51;101348.66;;;22.90;31.83
67109;BME280;54027;50.786;7.058;2023-05-19T13:07:19;101382.41;;;22.65;33.33
67109;BME280;54027;50.786;7.058;2023-05-19T13:09:44;101324.06;;;22.56;30.73
67109;BME280;54027;50.786;7.058;2023-05-19T13:12:10;101323.16;;;22.38;30.85
67109;BME280;54027;50.786;7.058;2023-05-19T13:14:35;101349.16;;;22.63;32.00
67109;BME280;54027;50.786;7.058;2023-05-19T13:17:01;101314.13;;;22.61;30.95
67109;BME280;54027;50.786;7.058;2023-05-19T13:19:27;101316.94;;;22.75;30.99
67109;BME280;54027;50.786;7.058;2023-05-19T13:21:53;101340.34;;;22.81;31.86
67109;BME280;54027;50.786;7.058;2023-05-19T13:24:18;101344.41;;;22.33;32.05
67109;BME280;54027;50.786;7.058;2023-05-19T13:26:44;101323.34;;;21.59;31.18